Ithaca, NY

8:23 AM EST on February 07, 2016 (GMT -0500)
Tompkins County | | Change Station
CLOSE
Current Station
Airport
Location: Ithaca,
Elevation: 1099 ft
Nearby Weather Stations

Elev 1099 ft 42.49 °N, 76.46 °W | Updated 27 minutes ago

Clear
Clear
19 °F
Feels Like 19 °F
N
0
Wind Variable Wind from North

Today
High -- | Low -- °F
--% Chance of Precip.
Yesterday
High -- | Low -- °F
Precip. -- in
Pressure 30.16 in
Visibility 10.0 miles
Clouds Clear
Dew Point 18 °F
Humidity 96%
Rainfall 0.00 in
Snow Depth Not available.
7:13 AM 5:26 PM
Waning Crescent, 2% visible
METAR KITH 071256Z 00000KT 10SM CLR M07/M08 A3011 RMK AO2 SLP212 T10721078
Pressure 30.16 in
Visibility 10.0 miles
Clouds Clear
Dew Point 18 °F
Humidity 96%
Rainfall 0.00 in
Snow Depth Not available.
7:13 AM 5:26 PM
Waning Crescent, 2% visible
METAR KITH 071256Z 00000KT 10SM CLR M07/M08 A3011 RMK AO2 SLP212 T10721078

10-Day Weather Forecast

Almanac

Astronomy

Feb. 07, 2016 Rise Set
Actual Time
Civil Twilight
Nautical Twilight
Astronomical Twilight
Moon
Length of Visible Light
Length of Day
Tomorrow will be .
, % of the Moon is Illuminated

Today's Extremes

State Highs State Lows

Community

WunderPhotos

Upload Photos

1,891,190 photos uploaded!

WunderBlog® & News

Nearby

Air Quality

  Air Quality AQ Index Pollutant
Not available.

Snow Depth

Station Depth Elevation

Earthquake Activity

City Distance Mag. Time & Date
Minimum magnitude displayed is 2.5.

Coastal Water Temperatures

Place Temperature

Stations

Nearby Weather Stations

Station Location Temp. Windchill Dew Point Humidity Wind Precip. Elev Updated Type
                   

Watches & Warnings

There are currently no watches in effect.